»·PEaware :: GDS26 KHHR-KSBA

GDS26 :: KHHR-KSBA

FLIGHT INFORMATION

Flight Status: Arrived
Operator: Unknown
More flights by this operator :: More flights under this callsign
Pilot: Ryan B. (8502)
Aircraft: BEECH AIRCRAFT BEECH AIRLINER
(B190)
More flights by this aircraft type
Origin: KHHR Northrop/Hawthorne Mun
United States
Destination: KSBA Santa Barbara Mun
United States
More flights between these airports :: More routes between these airports
Route: +SMO125R SMO V107 SADDE V299 VTU VTU282 KWANG
File this flight plan on PilotEdge
Remarks:
Altitude:
(Current/Filed)
6,000ft
Speed:
(Current/Filed)
240kts
Departed: 24-Aug-17 12:35 PM
Arrived: 24-Aug-17 01:11 PM
Distance/Time
Traveled:
81nm/0:36
Distance/Time
To Go:
Arrived

Flight Plot

Page will automatically refresh every two minutes.


Map Options




Map Legend


Flown Route
Filed Route
Departure Airport
Arrival Airport
Navaid (VOR, NDB)
Fix

Horizontal Profiles

Position Reports

Time Latitude Longitude Heading Altitude Ground
Speed
24-Aug-17 12:08 33.922016 -118.329064 360 58ft 0kts
24-Aug-17 12:09 33.922016 -118.329064 360 58ft 0kts
24-Aug-17 12:10 33.922016 -118.329064 360 58ft 0kts
24-Aug-17 12:11 33.922016 -118.329064 360 58ft 0kts
24-Aug-17 12:12 33.922016 -118.329064 360 58ft 0kts
24-Aug-17 12:13 33.922016 -118.329064 360 58ft 0kts
24-Aug-17 12:14 33.922016 -118.329064 360 58ft 0kts
24-Aug-17 12:15 33.922016 -118.329064 360 58ft 0kts
24-Aug-17 12:16 33.922016 -118.329064 360 58ft 0kts
24-Aug-17 12:17 33.922016 -118.329064 360 58ft 0kts
24-Aug-17 12:18 33.922016 -118.329064 359 58ft 0kts
24-Aug-17 12:19 33.922016 -118.329064 359 58ft 0kts
24-Aug-17 12:20 33.922016 -118.329064 359 58ft 0kts
24-Aug-17 12:21 33.922016 -118.329064 359 58ft 0kts
24-Aug-17 12:22 33.922016 -118.329064 359 58ft 0kts
24-Aug-17 12:23 33.922016 -118.329064 359 58ft 0kts
24-Aug-17 12:24 33.922016 -118.329064 359 58ft 0kts
24-Aug-17 12:25 33.922016 -118.329064 359 58ft 0kts
24-Aug-17 12:26 33.922016 -118.329064 359 58ft 0kts
24-Aug-17 12:27 33.922016 -118.329064 359 58ft 0kts
24-Aug-17 12:28 33.922016 -118.329064 359 58ft 0kts
24-Aug-17 12:29 33.922016 -118.329064 359 58ft 0kts
24-Aug-17 12:30 33.922016 -118.329064 359 58ft 0kts
24-Aug-17 12:31 33.922016 -118.329064 359 58ft 0kts
24-Aug-17 12:32 33.922016 -118.329064 360 58ft 0kts
24-Aug-17 12:33 33.922016 -118.329064 360 58ft 0kts
24-Aug-17 12:34 33.922017 -118.329064 360 58ft 0kts
24-Aug-17 12:35 33.922110 -118.329064 0 58ft 1kts
24-Aug-17 12:36 33.922766 -118.328811 25 58ft 0kts
24-Aug-17 12:37 33.922754 -118.327989 87 58ft 10kts
24-Aug-17 12:38 33.923234 -118.327290 266 58ft 0kts
24-Aug-17 12:39 33.915733 -118.361080 243 1245ft 146kts
24-Aug-17 12:40 33.893453 -118.412046 243 2564ft 204kts
24-Aug-17 12:41 33.849340 -118.445255 162 3868ft 223kts
24-Aug-17 12:42 33.833955 -118.386306 38 5507ft 220kts
24-Aug-17 12:43 33.895371 -118.367722 10 6179ft 242kts
24-Aug-17 12:44 33.963517 -118.367085 322 6170ft 263kts
24-Aug-17 12:45 34.023513 -118.414540 323 6264ft 265kts
24-Aug-17 12:46 34.034893 -118.497728 265 6048ft 270kts
24-Aug-17 12:47 34.031459 -118.587972 265 6029ft 270kts
24-Aug-17 12:48 34.029500 -118.676540 273 6045ft 271kts
24-Aug-17 12:49 34.038541 -118.766725 282 6024ft 274kts
24-Aug-17 12:50 34.061164 -118.852038 286 6036ft 275kts
24-Aug-17 12:51 34.084666 -118.939925 286 6037ft 276kts
24-Aug-17 12:52 34.107755 -119.026539 286 6031ft 275kts
24-Aug-17 12:53 34.139313 -119.110276 295 6024ft 274kts
24-Aug-17 12:54 34.173639 -119.192008 295 6018ft 273kts
24-Aug-17 12:55 34.207880 -119.273903 295 6017ft 273kts
24-Aug-17 12:56 34.242524 -119.355607 295 6018ft 274kts
24-Aug-17 12:57 34.276885 -119.438056 295 6013ft 275kts
24-Aug-17 12:58 34.299763 -119.525515 281 6035ft 274kts
24-Aug-17 12:59 34.316034 -119.614166 281 4851ft 270kts
24-Aug-17 13:00 34.331653 -119.699807 281 3916ft 246kts
24-Aug-17 13:01 34.345703 -119.777048 281 3925ft 232kts
24-Aug-17 13:02 34.359634 -119.854012 281 3924ft 235kts
24-Aug-17 13:03 34.373683 -119.931519 281 3924ft 236kts
24-Aug-17 13:04 34.387775 -120.009175 281 3924ft 236kts
24-Aug-17 13:05 34.431611 -120.038397 49 3924ft 233kts
24-Aug-17 13:06 34.428818 -119.964262 120 3897ft 228kts
24-Aug-17 13:07 34.386679 -119.985513 261 3939ft 232kts
24-Aug-17 13:08 34.379163 -120.062700 262 3913ft 233kts
24-Aug-17 13:09 34.394490 -120.127151 354 3908ft 226kts
24-Aug-17 13:10 34.423008 -120.069363 88 3619ft 229kts
24-Aug-17 13:11 34.424380 -119.997849 88 2368ft 195kts
24-Aug-17 13:12 34.425564 -119.943210 88 1469ft 137kts
24-Aug-17 13:13 34.426545 -119.899560 88 789ft 120kts
24-Aug-17 13:14 34.427383 -119.859861 88 146ft 117kts
24-Aug-17 13:15 34.428777 -119.842025 345 15ft 0kts
24-Aug-17 13:16 34.429248 -119.845163 274 15ft 10kts

Navigation Log

Ident Type
1. KHHR Airport
2. SMO Navaid
3. BAYST Fix
4. SADDE Fix
5. VTU Navaid
6. KWANG Fix
7. KSBA Airport